createdAt,value
2018-02-21T00:01:35.142Z,43.07
2018-02-21T00:04:03.005Z,47.93
2018-02-21T00:06:31.365Z,40.27
2018-02-21T00:08:59.876Z,44.50
2018-02-21T00:11:27.836Z,39.13
2018-02-21T00:13:55.883Z,44.53
2018-02-21T00:16:23.793Z,42.10
2018-02-21T00:18:53.037Z,47.70
2018-02-21T00:21:21.232Z,39.43
2018-02-21T00:23:50.012Z,54.00
2018-02-21T00:26:18.037Z,43.00
2018-02-21T00:28:45.926Z,42.53
2018-02-21T00:31:13.907Z,39.47
2018-02-21T00:33:41.955Z,43.37
2018-02-21T00:36:09.857Z,47.57
2018-02-21T00:38:37.804Z,42.47
2018-02-21T00:41:06.269Z,41.30
2018-02-21T00:43:34.416Z,49.00
2018-02-21T00:46:02.354Z,39.70
2018-02-21T00:48:30.241Z,39.40
2018-02-21T00:50:59.355Z,45.10
2018-02-21T00:53:27.368Z,43.63
2018-02-21T00:55:55.305Z,39.97
2018-02-21T00:58:23.565Z,40.90
2018-02-21T01:00:51.428Z,38.53
2018-02-21T01:03:19.584Z,40.60
2018-02-21T01:05:47.626Z,43.13
2018-02-21T01:08:15.633Z,37.90
2018-02-21T01:10:43.612Z,40.27
2018-02-21T01:13:11.518Z,37.63
2018-02-21T01:15:39.389Z,39.47
2018-02-21T01:18:07.280Z,46.63
2018-02-21T01:23:08.291Z,39.83
2018-02-21T01:25:36.217Z,40.43
2018-02-21T01:28:04.256Z,43.00
2018-02-21T01:30:32.160Z,42.40
2018-02-21T01:33:00.233Z,46.00
2018-02-21T01:35:28.116Z,46.03
2018-02-21T01:37:56.251Z,40.00
2018-02-21T01:40:24.219Z,42.07
2018-02-21T01:42:52.340Z,42.30
2018-02-21T01:45:20.264Z,40.10
2018-02-21T01:47:48.257Z,44.20
2018-02-21T01:50:16.712Z,42.40
2018-02-21T01:52:44.774Z,42.83
2018-02-21T01:55:12.987Z,43.83
2018-02-21T01:57:40.888Z,45.33
2018-02-21T02:00:08.801Z,43.37
2018-02-21T02:02:36.955Z,44.93
2018-02-21T02:05:06.328Z,46.87
2018-02-21T02:07:34.426Z,45.10
2018-02-21T02:10:02.635Z,39.57
2018-02-21T02:12:30.661Z,47.73
2018-02-21T02:14:59.320Z,45.90
2018-02-21T02:17:33.938Z,49.60
2018-02-21T02:20:01.892Z,47.63
2018-02-21T02:22:30.672Z,44.30
2018-02-21T02:24:58.581Z,46.13
2018-02-21T02:27:26.500Z,46.17
2018-02-21T02:29:54.532Z,48.40
2018-02-21T02:32:33.902Z,43.17
2018-02-21T02:35:01.892Z,43.47
2018-02-21T02:37:29.818Z,50.33
2018-02-21T02:40:03.290Z,44.40
2018-02-21T02:42:35.114Z,44.17
2018-02-21T02:45:03.485Z,49.33
2018-02-21T02:47:31.406Z,44.23
2018-02-21T02:49:59.320Z,45.13
2018-02-21T02:52:29.541Z,49.07
2018-02-21T02:54:57.754Z,44.30
2018-02-21T02:57:26.229Z,49.47
2018-02-21T02:59:54.133Z,47.90
2018-02-21T03:02:23.424Z,65.03
2018-02-21T03:04:51.380Z,46.30
2018-02-21T03:07:19.409Z,42.23
2018-02-21T03:09:47.548Z,46.30
2018-02-21T03:14:48.319Z,48.40
2018-02-21T03:17:16.296Z,45.73
2018-02-21T03:19:44.726Z,45.37
2018-02-21T03:22:12.778Z,48.07
2018-02-21T03:24:40.730Z,48.53
2018-02-21T03:27:08.740Z,48.77
2018-02-21T03:29:36.680Z,49.43
2018-02-21T03:32:04.999Z,46.47
2018-02-21T03:34:32.967Z,43.20
2018-02-21T03:37:00.892Z,43.90
2018-02-21T03:39:30.324Z,44.63
2018-02-21T03:41:58.294Z,41.83
2018-02-21T03:44:26.533Z,38.50
2018-02-21T03:46:54.488Z,44.57
2018-02-21T03:49:22.399Z,43.67
2018-02-21T03:51:50.284Z,45.00
2018-02-21T03:54:18.169Z,45.60
2018-02-21T03:56:46.115Z,43.40
2018-02-21T03:59:13.994Z,43.10
2018-02-21T04:01:42.163Z,43.27
2018-02-21T04:04:10.078Z,46.73
2018-02-21T04:06:37.998Z,43.50
2018-02-21T04:09:05.962Z,45.30
2018-02-21T04:11:34.771Z,47.00
2018-02-21T04:14:02.675Z,49.17
2018-02-21T04:16:31.545Z,43.33
2018-02-21T04:18:59.508Z,46.23
2018-02-21T04:21:27.504Z,50.87
2018-02-21T04:23:55.392Z,56.07
2018-02-21T04:26:23.327Z,47.23
2018-02-21T04:28:51.235Z,49.47
2018-02-21T04:31:19.148Z,45.87
2018-02-21T04:33:47.048Z,49.10
2018-02-21T04:36:14.944Z,45.87
2018-02-21T04:38:43.034Z,46.10
2018-02-21T04:41:10.800Z,41.90
2018-02-21T04:43:38.850Z,43.00
2018-02-21T04:46:06.878Z,54.33
2018-02-21T04:48:34.812Z,52.90
2018-02-21T04:51:02.819Z,44.50
2018-02-21T04:53:30.716Z,43.17
2018-02-21T04:56:16.597Z,47.33
2018-02-21T04:58:50.496Z,45.67
2018-02-21T05:01:18.436Z,39.20
2018-02-21T05:03:46.339Z,46.90
2018-02-21T05:06:14.221Z,44.03
2018-02-21T05:08:42.152Z,41.10
2018-02-21T05:11:10.085Z,40.93
2018-02-21T05:13:38.012Z,37.30
2018-02-21T05:16:05.983Z,53.40
2018-02-21T05:18:33.904Z,45.47
2018-02-21T05:21:01.811Z,51.90
2018-02-21T05:23:29.683Z,43.73
2018-02-21T05:25:57.586Z,46.80
2018-02-21T05:28:25.479Z,42.93
2018-02-21T05:30:53.381Z,39.03
2018-02-21T05:33:21.314Z,50.30
2018-02-21T05:35:49.236Z,45.50
2018-02-21T05:38:17.122Z,49.43
2018-02-21T05:40:45.118Z,43.67
2018-02-21T05:43:13.023Z,43.97
2018-02-21T05:45:40.924Z,36.77
2018-02-21T05:48:08.840Z,51.03
2018-02-21T05:50:36.820Z,48.33
2018-02-21T05:53:04.766Z,45.03
2018-02-21T05:55:32.669Z,47.00
2018-02-21T05:58:00.574Z,46.50
2018-02-21T06:00:28.510Z,42.90
2018-02-21T06:02:56.451Z,42.30
2018-02-21T06:05:24.348Z,40.77
2018-02-21T06:07:52.258Z,47.93
2018-02-21T06:10:20.180Z,43.20
2018-02-21T06:12:48.071Z,41.43
2018-02-21T06:15:15.933Z,54.33
2018-02-21T06:17:43.859Z,49.30
2018-02-21T06:20:11.756Z,42.80
2018-02-21T06:22:39.645Z,45.33
2018-02-21T06:25:07.564Z,47.43
2018-02-21T06:27:35.485Z,45.13
2018-02-21T06:30:03.410Z,45.53
2018-02-21T06:32:31.291Z,47.53
2018-02-21T06:34:59.401Z,45.17
2018-02-21T06:37:27.355Z,45.50
2018-02-21T06:39:55.242Z,53.10
2018-02-21T06:42:23.158Z,44.10
2018-02-21T06:44:51.070Z,44.10
2018-02-21T06:47:18.977Z,47.83
2018-02-21T06:49:46.896Z,58.47
2018-02-21T06:52:14.762Z,54.67
2018-02-21T06:54:42.671Z,58.20
2018-02-21T06:57:10.606Z,66.60
2018-02-21T06:59:38.498Z,53.10
2018-02-21T07:02:06.430Z,59.53
2018-02-21T07:04:34.332Z,55.33
2018-02-21T07:07:02.306Z,49.17
2018-02-21T07:09:30.182Z,50.07
2018-02-21T07:11:58.072Z,46.90
2018-02-21T07:14:26.005Z,51.37
2018-02-21T07:16:53.903Z,49.20
2018-02-21T07:19:22.846Z,47.87
2018-02-21T07:21:50.725Z,48.37
2018-02-21T07:24:18.620Z,58.93
2018-02-21T07:26:46.532Z,52.90
2018-02-21T07:29:14.430Z,54.23
2018-02-21T07:31:42.337Z,56.10
2018-02-21T07:34:10.227Z,57.20
2018-02-21T07:36:38.137Z,51.80
2018-02-21T07:39:06.048Z,50.40
2018-02-21T07:41:33.931Z,56.13
2018-02-21T07:44:01.899Z,47.90
2018-02-21T07:46:29.820Z,49.40
2018-02-21T07:48:57.768Z,51.73
2018-02-21T07:51:25.733Z,45.53
2018-02-21T07:53:53.696Z,49.20
2018-02-21T07:56:21.617Z,51.60
2018-02-21T07:58:49.505Z,43.67
2018-02-21T08:01:17.420Z,45.37
2018-02-21T08:03:45.309Z,46.23
2018-02-21T08:06:13.205Z,47.87
2018-02-21T08:08:41.110Z,44.80
2018-02-21T08:11:08.969Z,42.60
2018-02-21T08:13:36.867Z,50.10
2018-02-21T08:16:04.763Z,48.73
2018-02-21T08:18:32.676Z,58.20
2018-02-21T08:21:00.555Z,47.33
2018-02-21T08:23:28.490Z,48.67
2018-02-21T08:25:56.430Z,47.93
2018-02-21T08:28:24.335Z,45.17
2018-02-21T08:30:52.697Z,50.30
2018-02-21T08:33:20.716Z,42.30
2018-02-21T08:35:48.607Z,45.13
2018-02-21T08:38:16.477Z,43.80
2018-02-21T08:40:44.393Z,46.60
2018-02-21T08:43:12.305Z,42.60
2018-02-21T08:45:40.226Z,51.50
2018-02-21T08:48:08.165Z,53.70
2018-02-21T08:50:36.097Z,57.10
2018-02-21T08:53:04.003Z,54.43
2018-02-21T08:55:31.907Z,54.20
2018-02-21T08:57:59.850Z,44.10
2018-02-21T09:00:27.698Z,44.13
2018-02-21T09:02:55.640Z,48.77
2018-02-21T09:05:23.542Z,39.43
2018-02-21T09:07:51.481Z,41.20
2018-02-21T09:10:19.536Z,46.40
2018-02-21T09:12:47.442Z,43.70
2018-02-21T09:15:15.328Z,57.03
2018-02-21T09:17:43.198Z,39.67
2018-02-21T09:20:11.101Z,36.53
2018-02-21T09:22:38.991Z,40.50
2018-02-21T09:25:06.911Z,41.43
2018-02-21T09:27:34.809Z,46.60
2018-02-21T09:30:03.485Z,41.83
2018-02-21T09:32:31.392Z,41.73
2018-02-21T09:35:00.236Z,46.27
2018-02-21T09:37:28.360Z,41.47
2018-02-21T09:39:56.280Z,41.10
2018-02-21T09:42:24.191Z,41.37
2018-02-21T09:44:52.171Z,44.27
2018-02-21T09:47:20.089Z,50.10
2018-02-21T09:49:47.964Z,39.93
2018-02-21T09:52:16.137Z,44.13
2018-02-21T09:54:44.138Z,45.73
2018-02-21T09:57:12.475Z,45.77
2018-02-21T09:59:40.409Z,44.07
2018-02-21T10:02:08.322Z,41.40
2018-02-21T10:04:36.233Z,39.77
2018-02-21T10:07:04.440Z,48.80
2018-02-21T10:09:32.341Z,46.10
2018-02-21T10:12:00.215Z,45.93
2018-02-21T10:14:28.196Z,39.60
2018-02-21T10:16:56.075Z,47.53
2018-02-21T10:19:23.970Z,53.87
2018-02-21T10:21:51.884Z,46.70
2018-02-21T10:24:19.764Z,44.80
2018-02-21T10:26:47.743Z,41.47
2018-02-21T10:29:15.922Z,47.53
2018-02-21T10:31:43.810Z,64.10
2018-02-21T10:34:11.692Z,67.77
2018-02-21T10:36:39.603Z,43.70
2018-02-21T10:39:07.493Z,39.00
2018-02-21T10:41:35.380Z,37.33
2018-02-21T10:44:03.291Z,37.73
2018-02-21T10:46:31.628Z,35.60
2018-02-21T10:48:59.608Z,38.60
2018-02-21T10:51:27.573Z,41.50
2018-02-21T10:53:55.504Z,40.93
2018-02-21T10:56:23.510Z,37.63
2018-02-21T10:58:51.421Z,32.13
2018-02-21T11:01:24.227Z,36.80
2018-02-21T11:03:52.135Z,47.03
2018-02-21T11:06:20.041Z,34.47
2018-02-21T11:08:47.936Z,37.50
2018-02-21T11:11:15.891Z,37.83
2018-02-21T11:13:43.761Z,32.77
2018-02-21T11:16:11.719Z,28.20
2018-02-21T11:18:40.527Z,32.73
2018-02-21T11:21:08.401Z,34.00
2018-02-21T11:23:36.960Z,34.83
2018-02-21T11:26:04.874Z,35.07
2018-02-21T11:28:32.787Z,37.30
2018-02-21T11:31:00.664Z,33.13
2018-02-21T11:33:29.454Z,37.03
2018-02-21T11:35:57.507Z,30.93
2018-02-21T11:38:25.430Z,29.50
2018-02-21T11:40:53.348Z,32.10
2018-02-21T11:43:21.318Z,29.23
2018-02-21T11:45:49.334Z,30.27
2018-02-21T11:48:17.232Z,40.43
2018-02-21T11:50:46.110Z,31.93
2018-02-21T11:53:14.006Z,27.47
2018-02-21T11:55:41.945Z,32.97
2018-02-21T11:58:09.901Z,36.20
2018-02-21T12:00:37.789Z,32.57
2018-02-21T12:03:05.701Z,32.43
2018-02-21T12:05:33.688Z,21.93
2018-02-21T12:08:01.642Z,23.40
2018-02-21T12:10:29.514Z,18.67
2018-02-21T12:12:57.410Z,22.03
2018-02-21T12:15:25.326Z,28.40
2018-02-21T12:17:53.236Z,23.70
2018-02-21T12:20:21.230Z,33.23
2018-02-21T12:22:49.436Z,21.03
2018-02-21T12:25:17.394Z,24.83
2018-02-21T12:27:45.314Z,18.40
2018-02-21T12:30:13.244Z,17.40
2018-02-21T12:32:43.120Z,24.33
2018-02-21T12:35:11.077Z,23.60
2018-02-21T12:37:38.994Z,23.13
2018-02-21T12:40:06.905Z,20.53
2018-02-21T12:42:34.763Z,21.47
2018-02-21T12:45:02.692Z,22.67
2018-02-21T12:47:30.617Z,21.17
2018-02-21T12:49:58.548Z,17.87
2018-02-21T12:52:26.504Z,21.47
2018-02-21T12:54:54.437Z,25.70
2018-02-21T12:57:22.320Z,32.13
2018-02-21T12:59:50.249Z,42.27
2018-02-21T13:02:18.209Z,31.77
2018-02-21T13:04:46.103Z,27.30
2018-02-21T13:07:14.015Z,26.87
2018-02-21T13:09:41.922Z,26.13
2018-02-21T13:12:09.867Z,26.63
2018-02-21T13:14:37.778Z,24.47
2018-02-21T13:17:05.681Z,21.63
2018-02-21T13:19:33.774Z,20.40
2018-02-21T13:22:02.070Z,28.43
2018-02-21T13:24:30.631Z,21.13
2018-02-21T13:27:01.198Z,20.30
2018-02-21T13:29:40.298Z,20.57
2018-02-21T13:32:08.232Z,31.17
2018-02-21T13:34:36.136Z,38.53
2018-02-21T13:37:04.041Z,19.57
2018-02-21T13:39:32.995Z,46.60
2018-02-21T13:42:00.863Z,33.80
2018-02-21T13:44:28.798Z,25.17
2018-02-21T13:46:56.691Z,19.30
2018-02-21T13:49:26.670Z,20.03
2018-02-21T13:51:54.593Z,21.57
2018-02-21T13:54:23.254Z,17.70
2018-02-21T13:56:51.134Z,22.23
2018-02-21T13:59:19.055Z,22.87
2018-02-21T14:01:46.972Z,21.37
2018-02-21T14:04:14.864Z,23.10
2018-02-21T14:06:43.151Z,20.07
2018-02-21T14:09:11.065Z,19.70
2018-02-21T14:11:38.933Z,21.10
2018-02-21T14:14:07.643Z,19.20
2018-02-21T14:16:35.544Z,19.80
2018-02-21T14:19:03.500Z,19.27
2018-02-21T14:21:31.370Z,23.13
2018-02-21T14:23:59.352Z,22.33
2018-02-21T14:26:27.289Z,22.93
2018-02-21T14:28:55.260Z,19.70
2018-02-21T14:31:23.173Z,21.97
2018-02-21T14:33:51.061Z,24.50
2018-02-21T14:36:18.992Z,19.20
2018-02-21T14:38:46.881Z,22.40
2018-02-21T14:41:14.811Z,17.70
2018-02-21T14:43:42.776Z,22.37
2018-02-21T14:46:11.365Z,21.37
2018-02-21T14:48:39.283Z,20.20
2018-02-21T14:51:08.153Z,20.13
2018-02-21T14:53:36.044Z,26.70
2018-02-21T14:56:05.098Z,18.60
2018-02-21T14:58:33.511Z,32.17
2018-02-21T15:01:01.394Z,37.63
2018-02-21T15:03:29.329Z,23.27
2018-02-21T15:05:58.702Z,20.93
2018-02-21T15:08:26.607Z,23.40
2018-02-21T15:10:54.655Z,28.27
2018-02-21T15:13:22.581Z,27.53
2018-02-21T15:15:50.534Z,26.67
2018-02-21T15:18:18.790Z,26.30
2018-02-21T15:20:47.022Z,30.30
2018-02-21T15:23:15.247Z,26.47
2018-02-21T15:25:43.195Z,27.23
2018-02-21T15:28:11.150Z,25.97
2018-02-21T15:30:39.392Z,26.97
2018-02-21T15:33:07.315Z,24.57
2018-02-21T15:35:35.183Z,28.37
2018-02-21T15:38:03.063Z,29.80
2018-02-21T15:40:31.083Z,25.07
2018-02-21T15:42:58.983Z,24.80
2018-02-21T15:45:27.808Z,23.53
2018-02-21T15:47:55.731Z,27.50
2018-02-21T15:50:23.755Z,28.53
2018-02-21T15:52:51.634Z,24.40
2018-02-21T15:55:19.564Z,25.50
2018-02-21T15:57:47.488Z,28.77
2018-02-21T16:00:15.377Z,26.87
2018-02-21T16:02:44.140Z,22.70
2018-02-21T16:05:12.065Z,28.30
2018-02-21T16:07:39.968Z,25.90
2018-02-21T16:10:07.883Z,30.47
2018-02-21T16:12:37.566Z,28.13
2018-02-21T16:15:05.484Z,26.00
2018-02-21T16:17:33.392Z,37.77
2018-02-21T16:20:01.269Z,25.60
2018-02-21T16:22:29.181Z,28.73
2018-02-21T16:24:57.182Z,23.43
2018-02-21T16:27:25.134Z,25.87
2018-02-21T16:29:53.047Z,24.80
2018-02-21T16:32:20.999Z,22.70
2018-02-21T16:34:48.858Z,35.80
2018-02-21T16:37:16.798Z,23.43
2018-02-21T16:39:44.798Z,19.63
2018-02-21T16:42:12.675Z,23.73
2018-02-21T16:44:40.574Z,23.77
2018-02-21T16:47:08.481Z,27.10
2018-02-21T16:49:36.461Z,24.57
2018-02-21T16:52:04.328Z,24.63
2018-02-21T16:54:32.204Z,21.63
2018-02-21T16:57:00.136Z,23.10
2018-02-21T16:59:28.245Z,27.33
2018-02-21T17:01:59.133Z,29.77
2018-02-21T17:04:27.036Z,48.43
2018-02-21T17:06:54.938Z,31.43
2018-02-21T17:09:22.842Z,25.03
2018-02-21T17:11:50.734Z,26.80
2018-02-21T17:14:18.641Z,26.13
2018-02-21T17:16:46.533Z,34.03
2018-02-21T17:19:14.476Z,23.57
2018-02-21T17:21:42.388Z,23.67
2018-02-21T17:24:10.511Z,29.63
2018-02-21T17:26:38.403Z,26.73
2018-02-21T17:29:06.263Z,26.20
2018-02-21T17:31:34.126Z,23.13
2018-02-21T17:34:02.034Z,24.27
2018-02-21T17:36:30.772Z,27.57
2018-02-21T17:38:58.705Z,27.87
2018-02-21T17:41:32.487Z,28.17
2018-02-21T17:44:00.386Z,31.60
2018-02-21T17:46:28.282Z,29.40
2018-02-21T17:48:56.268Z,35.80
2018-02-21T17:51:24.233Z,38.33
2018-02-21T17:53:52.129Z,31.73
2018-02-21T17:56:20.037Z,29.50
2018-02-21T17:58:47.996Z,35.50
2018-02-21T18:01:15.862Z,40.30
2018-02-21T18:03:43.788Z,44.50
2018-02-21T18:06:11.763Z,38.70
2018-02-21T18:08:41.548Z,32.70
2018-02-21T18:11:14.220Z,28.57
2018-02-21T18:13:42.431Z,38.63
2018-02-21T18:16:10.381Z,38.37
2018-02-21T18:18:38.678Z,35.23
2018-02-21T18:21:07.983Z,33.27
2018-02-21T18:23:36.529Z,31.97
2018-02-21T18:26:04.715Z,34.57
2018-02-21T18:28:32.596Z,34.73
2018-02-21T18:31:00.502Z,38.67
2018-02-21T18:33:28.397Z,39.43
2018-02-21T18:35:56.406Z,36.27
2018-02-21T18:38:24.431Z,37.73
2018-02-21T18:40:52.391Z,40.80
2018-02-21T18:43:20.345Z,38.00
2018-02-21T18:45:49.116Z,30.47
2018-02-21T18:48:16.980Z,34.00
2018-02-21T18:50:44.936Z,34.40
2018-02-21T18:53:12.833Z,31.87
2018-02-21T18:55:40.748Z,33.50
2018-02-21T18:58:08.663Z,32.13
2018-02-21T19:00:36.544Z,34.33
2018-02-21T19:03:04.464Z,31.43
2018-02-21T19:05:32.418Z,29.47
2018-02-21T19:08:02.808Z,29.20
2018-02-21T19:10:30.671Z,37.50
2018-02-21T19:12:58.583Z,35.93
2018-02-21T19:15:26.494Z,40.07
2018-02-21T19:17:54.430Z,36.17
2018-02-21T19:20:22.566Z,36.97
2018-02-21T19:22:50.460Z,37.60
2018-02-21T19:25:18.348Z,34.43
2018-02-21T19:27:46.329Z,35.70
2018-02-21T19:30:14.238Z,28.70
2018-02-21T19:32:42.334Z,28.43
2018-02-21T19:35:10.275Z,32.80
2018-02-21T19:37:38.243Z,34.27
2018-02-21T19:40:06.155Z,45.93
2018-02-21T19:42:34.136Z,38.70
2018-02-21T19:45:02.031Z,50.60
2018-02-21T19:47:37.294Z,38.80
2018-02-21T19:50:05.196Z,44.23
2018-02-21T19:52:33.137Z,40.10
2018-02-21T19:55:01.126Z,42.90
2018-02-21T19:57:29.004Z,46.07
2018-02-21T19:59:57.094Z,42.33
2018-02-21T20:02:25.057Z,43.53
2018-02-21T20:04:52.999Z,33.27
2018-02-21T20:07:20.898Z,31.67
2018-02-21T20:09:48.768Z,28.30
2018-02-21T20:12:16.784Z,33.47
2018-02-21T20:14:44.699Z,33.60
2018-02-21T20:17:12.668Z,32.47
2018-02-21T20:19:40.589Z,34.37
2018-02-21T20:22:08.496Z,24.17
2018-02-21T20:24:36.483Z,25.20
2018-02-21T20:27:04.540Z,25.07
2018-02-21T20:29:32.531Z,26.03
2018-02-21T20:32:00.498Z,25.60
2018-02-21T20:34:28.371Z,27.33
2018-02-21T20:36:56.452Z,25.50
2018-02-21T20:39:24.456Z,30.47
2018-02-21T20:41:52.632Z,25.20
2018-02-21T20:44:20.586Z,24.20
2018-02-21T20:46:49.285Z,30.10
2018-02-21T20:49:17.412Z,27.97
2018-02-21T20:51:45.622Z,31.37
2018-02-21T20:54:13.493Z,23.37
2018-02-21T20:56:41.421Z,25.60
2018-02-21T20:59:09.350Z,27.13
2018-02-21T21:01:37.256Z,26.60
2018-02-21T21:04:05.349Z,22.47
2018-02-21T21:06:33.215Z,20.20
2018-02-21T21:09:01.140Z,27.63
2018-02-21T21:11:29.213Z,24.30
2018-02-21T21:13:57.229Z,23.50
2018-02-21T21:16:25.120Z,24.30
2018-02-21T21:18:53.025Z,25.90
2018-02-21T21:21:21.000Z,27.13
2018-02-21T21:23:49.073Z,21.27
2018-02-21T21:26:16.988Z,24.20
2018-02-21T21:28:44.972Z,23.90
2018-02-21T21:31:13.090Z,24.80
2018-02-21T21:33:40.957Z,26.70
2018-02-21T21:36:08.930Z,24.20
2018-02-21T21:38:36.828Z,24.50
2018-02-21T21:41:04.718Z,27.90
2018-02-21T21:43:32.624Z,22.90
2018-02-21T21:46:00.517Z,23.93
2018-02-21T21:48:28.382Z,20.20
2018-02-21T21:50:56.346Z,20.97
2018-02-21T21:53:24.319Z,24.20
2018-02-21T21:55:52.242Z,26.30
2018-02-21T21:58:20.131Z,20.83
2018-02-21T22:00:48.135Z,26.47
2018-02-21T22:03:16.079Z,23.90
2018-02-21T22:05:44.223Z,22.00
2018-02-21T22:08:12.160Z,25.43
2018-02-21T22:10:40.030Z,28.03
2018-02-21T22:13:08.139Z,25.17
2018-02-21T22:15:36.019Z,25.83
2018-02-21T22:18:03.916Z,22.67
2018-02-21T22:20:31.850Z,26.23
2018-02-21T22:22:59.715Z,28.03
2018-02-21T22:25:27.655Z,21.80
2018-02-21T22:27:55.603Z,30.17
2018-02-21T22:30:23.613Z,24.40
2018-02-21T22:32:51.478Z,22.03
2018-02-21T22:35:19.358Z,35.93
2018-02-21T22:37:47.261Z,21.57
2018-02-21T22:40:15.146Z,21.23
2018-02-21T22:42:43.136Z,23.97
2018-02-21T22:45:11.568Z,22.00
2018-02-21T22:47:39.468Z,22.27
2018-02-21T22:50:07.359Z,19.47
2018-02-21T22:52:35.300Z,24.43
2018-02-21T22:55:03.211Z,23.10
2018-02-21T22:57:31.238Z,25.93
2018-02-21T22:59:59.447Z,21.00
2018-02-21T23:02:27.299Z,37.40
2018-02-21T23:04:55.372Z,22.57
2018-02-21T23:07:23.303Z,24.07
2018-02-21T23:09:51.172Z,24.67
2018-02-21T23:12:19.043Z,25.17
2018-02-21T23:14:46.940Z,27.77
2018-02-21T23:17:14.812Z,24.23
2018-02-21T23:19:42.689Z,26.53
2018-02-21T23:22:10.697Z,26.50
2018-02-21T23:24:38.582Z,29.43
2018-02-21T23:27:06.464Z,27.80
2018-02-21T23:29:34.401Z,26.23
2018-02-21T23:32:02.333Z,36.23
2018-02-21T23:34:30.329Z,22.47
2018-02-21T23:36:58.195Z,31.00
2018-02-21T23:39:26.099Z,24.00
2018-02-21T23:41:54.013Z,26.40
2018-02-21T23:44:21.995Z,28.17
2018-02-21T23:46:49.941Z,29.37
2018-02-21T23:49:17.880Z,24.40
2018-02-21T23:51:45.821Z,27.80
2018-02-21T23:54:13.699Z,26.77
2018-02-21T23:56:41.657Z,24.97
2018-02-21T23:59:09.580Z,23.77
